Hamamatsu, Japan

4:53 AM JST on July 01, 2015 (GMT +0900)
Shizuhama Aero | | Change Station
CLOSE
Current Station
Airport
Location: Shizuhama AB,
Elevation: 33 ft
Nearby Weather Stations

Elev 33 ft 34.81 °N, 138.30 °E | Updated 11 minutes ago

Rain
Rain Mist
66 °F
Feels Like 66 °F
N
2
Wind Variable Wind from NE

Today
High -- | Low -- °F
--% Chance of Precip.
Yesterday
High -- | Low -- °F
Precip. -- in
4:39 AM 7:06 PM
Waxing Gibbous, 98% visible
Pressure 29.44 in
Visibility 2.5 miles
Clouds Scattered Clouds 500 ft
Scattered Clouds 800 ft
Mostly Cloudy 3000 ft
Dew Point 66 °F
Humidity 100%
Rainfall 0.00 in
Snow Depth Not available.
UV 0 out of 12
Pollen Not available.
Air Quality Not available.
Flu Activity Not available.
SPECI RJNY 301942Z 04002KT 4000 RA BR SCT005 SCT008 BKN030 19/19 Q0997 RMK 3ST005 4ST008 7SC030 A2946 3ST005 AND 4ST008 COV AD

More Conditions Fewer Conditions

Pressure 29.44 in
Visibility 2.5 miles
Clouds Scattered Clouds 500 ft
Scattered Clouds 800 ft
Mostly Cloudy 3000 ft
Dew Point 66 °F
Humidity 100%
Rainfall 0.00 in
Snow Depth Not available.
UV 0 out of 12
Pollen Not available.
Air Quality Not available.
Flu Activity Not available.
SPECI RJNY 301942Z 04002KT 4000 RA BR SCT005 SCT008 BKN030 19/19 Q0997 RMK 3ST005 4ST008 7SC030 A2946 3ST005 AND 4ST008 COV AD

More Conditions Fewer Conditions

10-Day Weather Forecast

×

Almanac

Astronomy

Jul. 01, 2015 Rise Set
Actual Time
Civil Twilight
Nautical Twilight
Astronomical Twilight
Moon
Length of Visible Light
Length of Day
Tomorrow will be .
, % of the Moon is Illuminated

Today's Extremes

Country Highs Country Lows

Community

WunderPhotos

Upload Photos

1,834,067 photos uploaded!

WunderBlogs® & News

Nearby

Air Quality

  Air Quality AQ Index Pollutant
Not available.

Snow Depth

Station Depth Elevation

Earthquake Activity

City Distance Mag. Time & Date
Minimum magnitude displayed is 2.5.

Coastal Water Temperatures

Place Temperature

Stations

Nearby Weather Stations

Station Location Temp. Windchill Dew Point Humidity Wind Precip. Elev Updated Type